Latest Weather Observations for Wattamolla

IDN60801

Issued at 5:05 pm EDT Thursday 29 January 2015 (issued every 30 minutes, with the page automatically refreshed every 10 minutes)

About weather observations | Map of weather stations | Latest weather observations for NSW | Other Formats
Station Details ID: 066208 Name: WATTAMOLLA AWS Lat: -34.14 Lon: 151.12 Height: 44.0 m
Data from the previous 72 hours. | See also: Recent months for locations in New South Wales
Date/Time
EDT
Temp
°C
App
Temp
°C
Dew
Point
Rel
Hum
%
Delta-T
°C
Wind Press
QNH
hPa
Press
MSL
hPa
Rain
since 9 am
mm
Dir
 
Spd
km/h
Gust
km/h
Spd
kts
Gust
kts
29/05:00pm - - - - - S 63 78 34 42 - - -
29/04:46pm - - - - - S 63 82 34 44 - - -
29/04:30pm - - - - - S 57 70 31 38 - - -
29/04:00pm - - - - - S 61 74 33 40 - - -
29/03:30pm - - - - - S 59 70 32 38 - - -
29/03:00pm - - - - - S 56 65 30 35 - - -
29/02:30pm - - - - - S 56 74 30 40 - - -
29/02:00pm - - - - - S 69 82 37 44 - - -
29/01:46pm - - - - - S 65 78 35 42 - - -
29/01:30pm - - - - - S 52 67 28 36 - - -
29/01:00pm - - - - - S 50 57 27 31 - - -
29/12:30pm - - - - - S 48 57 26 31 - - -
29/12:00pm - - - - - S 50 57 27 31 - - -
29/11:30am - - - - - S 57 67 31 36 - - -
29/11:00am - - - - - S 48 59 26 32 - - -
29/10:30am - - - - - S 57 67 31 36 - - -
29/10:00am - - - - - S 54 63 29 34 - - -
29/09:30am - - - - - S 57 67 31 36 - - -
29/09:05am - - - - - S 56 74 30 40 - - -
29/09:00am - - - - - S 57 74 31 40 - - -
29/08:30am - - - - - S 56 74 30 40 - - -
29/08:00am - - - - - S 46 69 25 37 - - -
29/07:34am - - - - - S 52 70 28 38 - - -
29/07:30am - - - - - S 57 70 31 38 - - -
29/07:12am - - - - - S 57 76 31 41 - - -
29/07:00am - - - - - S 61 72 33 39 - - -
29/06:30am - - - - - S 69 83 37 45 - - -
29/06:00am - - - - - S 59 80 32 43 - - -
29/05:52am - - - - - S 57 80 31 43 - - -
29/05:46am - - - - - S 61 80 33 43 - - -
29/05:42am - - - - - S 59 80 32 43 - - -
29/05:30am - - - - - S 50 69 27 37 - - -
29/05:00am - - - - - S 52 72 28 39 - - -
29/04:30am - - - - - S 43 61 23 33 - - -
29/04:04am - - - - - S 50 76 27 41 - - -
29/04:00am - - - - - S 61 76 33 41 - - -
29/03:32am - - - - - S 57 76 31 41 - - -
29/03:30am - - - - - S 59 76 32 41 - - -
29/03:13am - - - - - S 56 74 30 40 - - -
29/03:00am - - - - - S 57 70 31 38 - - -
29/02:30am - - - - - S 59 80 32 43 - - -
29/02:23am - - - - - S 50 72 27 39 - - -
29/02:00am - - - - - S 39 59 21 32 - - -
29/01:39am - - - - - S 52 70 28 38 - - -
29/01:30am - - - - - S 57 72 31 39 - - -
29/01:00am - - - - - S 59 70 32 38 - - -
29/12:53am - - - - - S 52 70 28 38 - - -
29/12:32am - - - - - S 41 59 22 32 - - -
29/12:30am - - - - - S 43 59 23 32 - - -
29/12:00am - - - - - S 52 67 28 36 - - -
 
Date/Time
EDT
Temp
°C
App
Temp
°C
Dew
Point
Rel
Hum
%
Delta-T
°C
Wind Press
QNH
hPa
Press
MSL
hPa
Rain
since 9 am
mm
Dir
 
Spd
km/h
Gust
km/h
Spd
kts
Gust
kts
28/11:30pm - - - - - S 50 63 27 34 - - -
28/11:00pm - - - - - S 56 65 30 35 - - -
28/10:30pm - - - - - S 61 74 33 40 - - -
28/10:00pm - - - - - S 57 69 31 37 - - -
28/09:30pm - - - - - S 54 65 29 35 - - -
28/09:00pm - - - - - S 46 63 25 34 - - -
28/08:30pm - - - - - S 46 59 25 32 - - -
28/08:27pm - - - - - S 44 59 24 32 - - -
28/08:25pm - - - - - S 44 57 24 31 - - -
28/08:00pm - - - - - S 57 67 31 36 - - -
28/07:46pm - - - - - S 52 70 28 38 - - -
28/07:30pm - - - - - S 48 56 26 30 - - -
28/07:11pm - - - - - S 39 61 21 33 - - -
28/07:00pm - - - - - S 28 43 15 23 - - -
28/06:30pm - - - - - S 50 57 27 31 - - -
28/06:00pm - - - - - S 48 57 26 31 - - -
28/05:30pm - - - - - S 43 52 23 28 - - -
28/05:00pm - - - - - SSE 48 59 26 32 - - -
28/04:47pm - - - - - S 32 50 17 27 - - -
28/04:30pm - - - - - S 43 69 23 37 - - -
28/04:27pm - - - - - S 50 69 27 37 - - -
28/04:17pm - - - - - S 46 63 25 34 - - -
28/04:13pm - - - - - S 39 57 21 31 - - -
28/04:00pm - - - - - S 41 52 22 28 - - -
28/03:30pm - - - - - S 46 56 25 30 - - -
28/03:00pm - - - - - S 50 61 27 33 - - -
28/02:44pm - - - - - S 28 59 15 32 - - -
28/02:30pm - - - - - S 22 37 12 20 - - -
28/02:00pm - - - - - S 43 57 23 31 - - -
28/01:53pm - - - - - S 52 80 28 43 - - -
28/01:49pm - - - - - S 52 80 28 43 - - -
28/01:47pm - - - - - S 46 80 25 43 - - -
28/01:45pm - - - - - S 39 74 21 40 - - -
28/01:40pm - - - - - S 28 52 15 28 - - -
28/01:30pm - - - - - S 32 43 17 23 - - -
28/01:16pm - - - - - S 52 67 28 36 - - -
28/01:09pm - - - - - S 54 67 29 36 - - -
28/01:02pm - - - - - S 39 57 21 31 - - -
28/01:00pm - - - - - S 37 50 20 27 - - -
28/12:30pm - - - - - S 48 61 26 33 - - -
28/12:18pm - - - - - S 28 50 15 27 - - -
28/12:00pm - - - - - SSE 32 41 17 22 - - -
28/11:51am - - - - - SSE 32 50 17 27 - - -
28/11:30am - - - - - S 35 48 19 26 - - -
28/11:18am - - - - - SSE 41 74 22 40 - - -
28/11:16am - - - - - SSE 48 74 26 40 - - -
28/11:12am - - - - - S 52 74 28 40 - - -
28/11:06am - - - - - SSE 41 70 22 38 - - -
28/11:00am - - - - - SSE 37 56 20 30 - - -
28/10:59am - - - - - SSE 37 56 20 30 - - -
28/10:30am - - - - - SSE 39 52 21 28 - - -
28/10:00am - - - - - SSE 46 61 25 33 - - -
28/09:30am - - - - - S 46 59 25 32 - - -
28/09:00am - - - - - S 43 54 23 29 - - -
28/08:32am - - - - - SSE 30 52 16 28 - - -
28/08:30am - - - - - SSE 30 39 16 21 - - -
28/08:00am - - - - - S 30 39 16 21 - - -
28/07:30am - - - - - SSE 43 54 23 29 - - -
28/07:03am - - - - - S 32 57 17 31 - - -
28/07:00am - - - - - SSE 33 41 18 22 - - -
28/06:35am - - - - - S 46 65 25 35 - - -
28/06:30am - - - - - S 54 67 29 36 - - -
28/06:00am - - - - - S 61 76 33 41 - - -
28/05:30am - - - - - S 50 67 27 36 - - -
28/05:28am - - - - - S 46 67 25 36 - - -
28/05:10am - - - - - S 35 56 19 30 - - -
28/05:00am - - - - - S 35 50 19 27 - - -
28/04:55am - - - - - S 35 50 19 27 - - -
28/04:30am - - - - - S 19 28 10 15 - - -
28/04:00am - - - - - SSE 20 30 11 16 - - -
28/03:30am - - - - - S 35 48 19 26 - - -
28/03:00am - - - - - S 35 44 19 24 - - -
28/02:30am - - - - - S 30 37 16 20 - - -
28/02:00am - - - - - S 35 44 19 24 - - -
28/01:30am - - - - - S 43 50 23 27 - - -
28/01:00am - - - - - S 32 35 17 19 - - -
28/12:30am - - - - - S 33 48 18 26 - - -
28/12:00am - - - - - SSE 41 50 22 27 - - -
 
Date/Time
EDT
Temp
°C
App
Temp
°C
Dew
Point
Rel
Hum
%
Delta-T
°C
Wind Press
QNH
hPa
Press
MSL
hPa
Rain
since 9 am
mm
Dir
 
Spd
km/h
Gust
km/h
Spd
kts
Gust
kts
27/11:41pm - - - - - S 28 48 15 26 - - -
27/11:30pm - - - - - SSE 30 41 16 22 - - -
27/11:00pm - - - - - S 22 32 12 17 - - -
27/10:30pm - - - - - S 46 54 25 29 - - -
27/10:20pm - - - - - S 35 50 19 27 - - -
27/10:00pm - - - - - SE 19 39 10 21 - - -
27/09:30pm - - - - - S 35 44 19 24 - - -
27/09:23pm - - - - - S 24 39 13 21 - - -
27/09:00pm - - - - - ESE 7 15 4 8 - - -
27/08:30pm - - - - - NE 11 15 6 8 - - -
27/08:07pm - - - - - SSE 39 56 21 30 - - -
27/08:00pm - - - - - S 46 56 25 30 - - -
27/07:30pm - - - - - S 35 48 19 26 - - -
27/07:18pm - - - - - S 26 50 14 27 - - -
27/07:16pm - - - - - S 24 50 13 27 - - -
27/07:00pm - - - - - S 9 17 5 9 - - -
27/06:30pm - - - - - ESE 6 11 3 6 - - -
27/06:00pm - - - - - S 33 39 18 21 - - -
27/05:30pm - - - - - S 17 24 9 13 - - -
27/05:00pm - - - - - S 6 9 3 5 - - -
27/04:30pm - - - - - S 17 20 9 11 - - -
27/04:00pm - - - - - S 20 26 11 14 - - -
27/03:30pm - - - - - SSE 22 32 12 17 - - -
27/03:00pm - - - - - S 26 30 14 16 - - -
27/02:30pm - - - - - SSE 26 35 14 19 - - -
27/02:00pm - - - - - SSE 22 32 12 17 - - -
27/01:30pm - - - - - SSE 22 32 12 17 - - -
27/01:00pm - - - - - SSE 22 32 12 17 - - -
27/12:30pm - - - - - S 19 32 10 17 - - -
27/12:00pm - - - - - SSE 20 24 11 13 - - -
27/11:30am - - - - - SSE 15 22 8 12 - - -
27/11:00am - - - - - SSE 17 20 9 11 - - -
27/10:30am - - - - - SE 20 28 11 15 - - -
27/10:00am - - - - - SSE 28 32 15 17 - - -
27/09:30am - - - - - S 26 35 14 19 - - -
27/09:00am - - - - - S 33 39 18 21 - - -
27/08:30am - - - - - S 30 35 16 19 - - -
27/08:00am - - - - - S 28 33 15 18 - - -
27/07:30am - - - - - S 28 35 15 19 - - -
27/07:00am - - - - - S 39 44 21 24 - - -
27/06:30am - - - - - S 37 43 20 23 - - -
27/06:00am - - - - - S 35 41 19 22 - - -
27/05:30am - - - - - S 32 37 17 20 - - -
27/05:00am - - - - - SSE 24 32 13 17 - - -
27/04:30am - - - - - SSE 24 30 13 16 - - -
27/04:00am - - - - - SE 19 26 10 14 - - -
27/03:30am - - - - - SSE 17 22 9 12 - - -
27/03:00am - - - - - E 15 22 8 12 - - -
27/02:30am - - - - - S 20 28 11 15 - - -
27/02:00am - - - - - S 20 28 11 15 - - -
27/01:30am - - - - - S 20 28 11 15 - - -
27/01:00am - - - - - S 20 35 11 19 - - -
27/12:30am - - - - - SSW 19 30 10 16 - - -
27/12:00am - - - - - S 26 37 14 20 - - -
 
Date/Time
EDT
Temp
°C
App
Temp
°C
Dew
Point
Rel
Hum
%
Delta-T
°C
Wind Press
QNH
hPa
Press
MSL
hPa
Rain
since 9 am
mm
Dir
 
Spd
km/h
Gust
km/h
Spd
kts
Gust
kts
26/11:30pm - - - - - SSW 17 26 9 14 - - -
26/11:00pm - - - - - S 24 30 13 16 - - -
26/10:30pm - - - - - SSE 26 37 14 20 - - -
26/10:00pm - - - - - SSE 24 35 13 19 - - -
26/09:30pm - - - - - S 26 33 14 18 - - -
26/09:00pm - - - - - SSE 26 39 14 21 - - -
26/08:30pm - - - - - SSE 30 41 16 22 - - -
26/08:00pm - - - - - S 30 39 16 21 - - -
26/07:30pm - - - - - SSE 24 37 13 20 - - -
26/07:00pm - - - - - S 37 48 20 26 - - -
26/06:30pm - - - - - S 41 50 22 27 - - -
26/06:00pm - - - - - S 43 52 23 28 - - -
26/05:30pm - - - - - S 37 46 20 25 - - -

Other Formats:

Comma delimited format used in spreadsheet applications
http://www.bom.gov.au/fwo/IDN60801/IDN60801.95752.axf

JavaScript Object Notation format (JSON) in row-major order
http://www.bom.gov.au/fwo/IDN60801/IDN60801.95752.json